Fairbanks, AK

10:09 PM AKDT am 23. März 2017 (GMT -0800)
200 Slater Dr. | | Change Station

Höhe 450 ft 64.84 °N, 147.70 °W | Updated 5 seconds ago

Clear
Heiter
2.3 °F
gefühlte 2 °F
N
0.0
Wind Wechselnd Wind aus Süd
Gusts 0.0 mph

Heute
Max. -- | schwach -- °F
--% Regenrisiko
Gestern
Max. -- | schwach -- °F
Precip. -- inch
Druck 30.08 inch
Sichtweite 9.0 Meilen
Wolken Heiter
Windchill 2 °F
Taupunkt -4 °F
Feuchtigkeit 75%
Regen 0.00 inch
Schneehöhe Nicht verfügbar..
7:38 AM 8:17 PM
Letztes Viertel, 17% visible
METAR PAFB 240558Z COR 00000KT 9SM CLR M22/M25 A3002 RMK AO2 SLP185 4/030 T12171246 11098 21217 52010 $ COR 0600
Druck 30.08 inch
Sichtweite 9.0 Meilen
Wolken Heiter
Windchill 2 °F
Taupunkt -4 °F
Feuchtigkeit 75%
Regen 0.00 inch
Schneehöhe Nicht verfügbar..
7:38 AM 8:17 PM
Letztes Viertel, 17% visible
METAR PAFB 240558Z COR 00000KT 9SM CLR M22/M25 A3002 RMK AO2 SLP185 4/030 T12171246 11098 21217 52010 $ COR 0600

Get Severe Weather Alerts

Thanks for signing up!

Be on the lookout for a verification email in your inbox.

You'll start receiving the daily forecast at 8 AM.

×

10-Day Weather Forecast

Almanac

Astronomie

Mar. 23, 2017 Aufgang Untergang
Genaue Zeit
Bürgerliche Dämmerung
Nautische Dämmerung
Astronomische Dämmerung
Mond
Länge des sichtbaren Lichts
Tageslänge
Tomorrow will be .
, % of the Moon is Illuminated

Heutige Rekorde

State Highs State Lows

Community

WunderPhotos

Upload Photos

1,962,540 Fotos hochgeladen!

WunderBlog® & News

Nearby

Luftqualität

  Luftqualität LQ Index Schadstoff
Not available.

Schneehöhe

Station Depth Höhe

Erdbebenaktivität

Stadt Distance Mag. Time & Date
Minimum magnitude displayed is 2.5.

Erdbebenaktivität

Stadt Distance Mag. Time & Date
Minimum magnitude displayed is 2.5.

küstennahe Wassertemperaturen

Ort Temperatur

Stations

Wetterstationen in der Umgebung

Stationsstandort Temp. Windchill Taupunkt Feuchtigkeit Wind Precip. Höhe Aktualisiert Art
                   

Watches & Warnings

There are currently no watches in effect.